Silver Creek, Minnesota
Current Conditions -  °F | °C
As of 7:35 AM on Wednesday 22 Oct 2014 (Local Time) from KMGG Reporting Station
Clear Clear  
Wind Chill: 36°   Ceiling: Unl
Heat Index: 43°   Visibility: 10mi
Dew Point: 39°   Wind: 13mph
Humidity: 86%   Direction: 130°SE
Pressure: 30.14"   Gusts: 17mph
Location:  45.31°N, 93.98°W
Report Text: KMGG 221235Z AUTO 13011G15KT 10SM CLR 06/04 A3014 RMK AO2 T00600039
Loading
Personal Weather Stations






























Interactive Weather Map
Tropical Storm Tracking
New forecast layout! Learn more

10-Day Weather Forecast

Advertisements
Track Severe Weather on mobile